createdAt,value
2018-09-12T00:00:47.457Z,20.92
2018-09-12T00:01:47.240Z,20.92
2018-09-12T00:02:47.097Z,20.95
2018-09-12T00:03:46.958Z,20.88
2018-09-12T00:04:46.821Z,20.80
2018-09-12T00:05:46.723Z,20.92
2018-09-12T00:06:46.557Z,20.88
2018-09-12T00:07:46.418Z,20.85
2018-09-12T00:08:46.284Z,20.80
2018-09-12T00:09:46.150Z,20.85
2018-09-12T00:10:46.039Z,20.82
2018-09-12T00:11:45.876Z,20.85
2018-09-12T00:12:45.738Z,20.82
2018-09-12T00:13:45.604Z,20.79
2018-09-12T00:14:45.470Z,20.79
2018-09-12T00:15:45.361Z,20.84
2018-09-12T00:16:51.860Z,20.77
2018-09-12T00:17:45.062Z,20.84
2018-09-12T00:18:44.935Z,20.82
2018-09-12T00:19:44.786Z,20.84
2018-09-12T00:20:44.686Z,20.79
2018-09-12T00:21:44.514Z,20.82
2018-09-12T00:22:44.371Z,20.82
2018-09-12T00:23:44.231Z,20.79
2018-09-12T00:24:44.095Z,20.70
2018-09-12T00:25:43.958Z,20.70
2018-09-12T00:26:43.855Z,20.77
2018-09-12T00:27:43.694Z,20.70
2018-09-12T00:28:43.561Z,20.73
2018-09-12T00:29:43.422Z,20.77
2018-09-12T00:30:43.286Z,20.62
2018-09-12T00:31:43.187Z,20.62
2018-09-12T00:32:43.024Z,20.66
2018-09-12T00:33:42.884Z,20.66
2018-09-12T00:34:42.751Z,20.73
2018-09-12T00:35:42.617Z,20.69
2018-09-12T00:36:42.511Z,20.67
2018-09-12T00:37:42.354Z,20.57
2018-09-12T00:38:42.219Z,20.52
2018-09-12T00:39:42.094Z,20.51
2018-09-12T00:40:41.953Z,20.57
2018-09-12T00:41:41.851Z,20.54
2018-09-12T00:42:41.690Z,20.57
2018-09-12T00:43:41.560Z,20.57
2018-09-12T00:44:41.432Z,20.52
2018-09-12T00:45:41.302Z,20.50
2018-09-12T00:46:41.197Z,20.51
2018-09-12T00:47:41.041Z,20.48
2018-09-12T00:48:40.922Z,20.48
2018-09-12T00:49:40.780Z,20.47
2018-09-12T00:50:40.654Z,20.54
2018-09-12T00:51:40.559Z,20.47
2018-09-12T00:52:40.396Z,20.39
2018-09-12T00:53:40.268Z,20.38
2018-09-12T00:54:40.137Z,20.26
2018-09-12T00:55:40.012Z,20.17
2018-09-12T00:56:39.915Z,20.17
2018-09-12T00:57:39.756Z,20.16
2018-09-12T00:58:39.630Z,20.16
2018-09-12T00:59:39.504Z,20.10
2018-09-12T01:00:39.378Z,20.17
2018-09-12T01:01:39.278Z,20.10
2018-09-12T01:02:39.122Z,20.10
2018-09-12T01:03:39.001Z,20.17
2018-09-12T01:04:38.877Z,20.17
2018-09-12T01:05:38.757Z,20.11
2018-09-12T01:06:38.660Z,20.13
2018-09-12T01:07:38.510Z,20.11
2018-09-12T01:08:38.383Z,20.11
2018-09-12T01:09:38.261Z,20.14
2018-09-12T01:10:38.129Z,20.11
2018-09-12T01:11:38.041Z,20.16
2018-09-12T01:12:37.882Z,20.14
2018-09-12T01:13:37.758Z,20.14
2018-09-12T01:14:37.630Z,20.16
2018-09-12T01:15:37.506Z,20.16
2018-09-12T01:16:37.405Z,20.10
2018-09-12T01:17:37.250Z,20.06
2018-09-12T01:18:37.131Z,20.03
2018-09-12T01:19:37.000Z,20.06
2018-09-12T01:20:36.878Z,20.06
2018-09-12T01:21:36.784Z,20.13
2018-09-12T01:22:36.635Z,20.05
2018-09-12T01:23:36.510Z,20.14
2018-09-12T01:24:36.387Z,20.06
2018-09-12T01:25:36.268Z,20.08
2018-09-12T01:26:36.180Z,19.98
2018-09-12T01:27:36.032Z,19.98
2018-09-12T01:28:35.911Z,19.98
2018-09-12T01:29:35.792Z,20.05
2018-09-12T01:30:35.684Z,19.92
2018-09-12T01:31:35.609Z,19.91
2018-09-12T01:32:35.459Z,19.94
2018-09-12T01:33:35.316Z,19.83
2018-09-12T01:34:35.197Z,19.96
2018-09-12T01:35:35.077Z,19.96
2018-09-12T01:36:34.954Z,19.94
2018-09-12T01:37:34.860Z,19.96
2018-09-12T01:38:34.716Z,19.94
2018-09-12T01:39:34.602Z,19.95
2018-09-12T01:40:34.480Z,19.95
2018-09-12T01:41:34.359Z,19.91
2018-09-12T01:42:34.265Z,19.92
2018-09-12T01:43:34.117Z,19.96
2018-09-12T01:44:33.992Z,19.86
2018-09-12T01:45:33.869Z,19.81
2018-09-12T01:46:33.750Z,19.78
2018-09-12T01:47:33.651Z,19.77
2018-09-12T01:48:33.500Z,19.73
2018-09-12T01:49:33.378Z,19.76
2018-09-12T01:50:33.266Z,19.77
2018-09-12T01:51:33.140Z,19.78
2018-09-12T01:52:33.041Z,19.78
2018-09-12T01:53:32.900Z,19.76
2018-09-12T01:54:32.790Z,19.71
2018-09-12T01:55:32.665Z,19.74
2018-09-12T01:56:32.549Z,19.69
2018-09-12T01:57:32.460Z,19.63
2018-09-12T01:58:32.308Z,19.59
2018-09-12T01:59:32.201Z,19.65
2018-09-12T02:00:32.087Z,19.65
2018-09-12T02:01:31.965Z,19.63
2018-09-12T02:02:31.880Z,19.58
2018-09-12T02:03:31.738Z,19.50
2018-09-12T02:04:31.629Z,19.62
2018-09-12T02:05:31.506Z,19.55
2018-09-12T02:06:31.397Z,19.62
2018-09-12T02:07:31.303Z,19.54
2018-09-12T02:08:31.168Z,19.51
2018-09-12T02:09:31.053Z,19.59
2018-09-12T02:10:30.931Z,19.51
2018-09-12T02:11:30.816Z,19.66
2018-09-12T02:12:30.727Z,19.50
2018-09-12T02:13:30.585Z,19.63
2018-09-12T02:14:30.470Z,19.51
2018-09-12T02:15:30.358Z,19.56
2018-09-12T02:16:30.245Z,19.59
2018-09-12T02:17:30.178Z,19.55
2018-09-12T02:18:30.018Z,19.55
2018-09-12T02:19:29.905Z,19.58
2018-09-12T02:20:29.792Z,19.55
2018-09-12T02:21:29.685Z,19.55
2018-09-12T02:22:29.598Z,19.58
2018-09-12T02:23:29.453Z,19.51
2018-09-12T02:24:29.342Z,19.47
2018-09-12T02:25:29.231Z,19.48
2018-09-12T02:26:29.121Z,19.46
2018-09-12T02:27:29.030Z,19.43
2018-09-12T02:28:28.893Z,19.46
2018-09-12T02:29:28.786Z,19.48
2018-09-12T02:30:28.679Z,19.43
2018-09-12T02:31:28.567Z,19.41
2018-09-12T02:32:28.492Z,19.40
2018-09-12T02:33:28.347Z,19.51
2018-09-12T02:34:28.228Z,19.41
2018-09-12T02:35:28.116Z,19.46
2018-09-12T02:36:28.007Z,19.44
2018-09-12T02:37:27.897Z,19.41
2018-09-12T02:38:27.819Z,19.40
2018-09-12T02:39:27.683Z,19.40
2018-09-12T02:40:27.576Z,19.43
2018-09-12T02:41:27.471Z,19.43
2018-09-12T02:42:27.367Z,19.43
2018-09-12T02:43:27.290Z,19.41
2018-09-12T02:44:27.148Z,19.33
2018-09-12T02:45:27.040Z,19.31
2018-09-12T02:46:26.932Z,19.32
2018-09-12T02:47:26.823Z,19.37
2018-09-12T02:48:26.738Z,19.29
2018-09-12T02:49:26.601Z,19.33
2018-09-12T02:50:26.495Z,19.26
2018-09-12T02:51:26.386Z,19.39
2018-09-12T02:52:26.279Z,19.23
2018-09-12T02:53:26.206Z,19.32
2018-09-12T02:54:26.064Z,19.29
2018-09-12T02:55:26.006Z,19.26
2018-09-12T02:56:25.849Z,19.29
2018-09-12T02:57:25.743Z,19.25
2018-09-12T02:58:25.661Z,19.28
2018-09-12T02:59:25.530Z,19.26
2018-09-12T03:00:25.420Z,19.14
2018-09-12T03:01:25.310Z,19.25
2018-09-12T03:02:25.209Z,19.22
2018-09-12T03:03:25.128Z,19.21
2018-09-12T03:04:25.004Z,19.19
2018-09-12T03:05:24.892Z,19.23
2018-09-12T03:06:24.793Z,19.07
2018-09-12T03:07:24.672Z,18.94
2018-09-12T03:08:24.589Z,18.90
2018-09-12T03:09:24.455Z,18.75
2018-09-12T03:10:24.346Z,18.66
2018-09-12T03:11:24.244Z,18.65
2018-09-12T03:12:24.136Z,18.48
2018-09-12T03:13:24.062Z,18.50
2018-09-12T03:14:23.935Z,18.47
2018-09-12T03:15:23.829Z,18.36
2018-09-12T03:16:23.723Z,18.29
2018-09-12T03:17:23.629Z,18.36
2018-09-12T03:18:23.545Z,18.36
2018-09-12T03:19:23.417Z,18.44
2018-09-12T03:20:23.333Z,18.44
2018-09-12T03:21:23.206Z,18.54
2018-09-12T03:22:23.105Z,18.52
2018-09-12T03:23:23.032Z,18.52
2018-09-12T03:24:22.904Z,18.55
2018-09-12T03:25:22.802Z,18.58
2018-09-12T03:26:22.699Z,18.55
2018-09-12T03:27:22.597Z,18.62
2018-09-12T03:28:22.527Z,18.58
2018-09-12T03:29:22.396Z,18.55
2018-09-12T03:30:22.302Z,18.57
2018-09-12T03:31:22.191Z,18.65
2018-09-12T03:32:22.091Z,18.60
2018-09-12T03:33:22.010Z,18.65
2018-09-12T03:34:21.872Z,18.60
2018-09-12T03:35:21.766Z,18.72
2018-09-12T03:36:21.657Z,18.62
2018-09-12T03:37:21.552Z,18.72
2018-09-12T03:38:21.443Z,18.67
2018-09-12T03:39:21.361Z,18.63
2018-09-12T03:40:21.231Z,18.70
2018-09-12T03:41:21.182Z,18.72
2018-09-12T03:42:21.024Z,18.76
2018-09-12T03:43:20.921Z,18.70
2018-09-12T03:44:20.843Z,18.67
2018-09-12T03:45:20.707Z,18.66
2018-09-12T03:46:20.600Z,18.67
2018-09-12T03:47:20.490Z,18.70
2018-09-12T03:48:20.387Z,18.63
2018-09-12T03:49:20.315Z,18.69
2018-09-12T03:50:20.175Z,18.69
2018-09-12T03:51:20.074Z,18.72
2018-09-12T03:52:19.976Z,18.66
2018-09-12T03:53:19.867Z,18.73
2018-09-12T03:54:19.803Z,18.72
2018-09-12T03:55:19.664Z,18.69
2018-09-12T03:56:19.556Z,18.72
2018-09-12T03:57:19.448Z,18.72
2018-09-12T03:58:19.343Z,18.70
2018-09-12T03:59:19.237Z,18.70
2018-09-12T04:00:19.154Z,18.72
2018-09-12T04:01:19.024Z,18.69
2018-09-12T04:02:18.921Z,18.72
2018-09-12T04:03:18.814Z,18.65
2018-09-12T04:04:18.716Z,18.72
2018-09-12T04:05:18.633Z,18.70
2018-09-12T04:06:18.502Z,18.66
2018-09-12T04:07:18.402Z,18.62
2018-09-12T04:08:18.289Z,18.60
2018-09-12T04:09:18.184Z,18.57
2018-09-12T04:10:18.106Z,18.67
2018-09-12T04:11:17.964Z,18.58
2018-09-12T04:12:17.859Z,18.69
2018-09-12T04:13:17.748Z,18.60
2018-09-12T04:14:17.645Z,18.63
2018-09-12T04:15:17.556Z,18.70
2018-09-12T04:16:17.423Z,18.65
2018-09-12T04:17:17.313Z,18.65
2018-09-12T04:18:17.209Z,18.62
2018-09-12T04:19:17.096Z,18.55
2018-09-12T04:20:17.019Z,18.57
2018-09-12T04:21:16.886Z,18.58
2018-09-12T04:22:16.780Z,18.63
2018-09-12T04:23:16.680Z,18.63
2018-09-12T04:24:16.596Z,18.51
2018-09-12T04:25:16.502Z,18.47
2018-09-12T04:26:16.368Z,18.51
2018-09-12T04:27:16.262Z,18.51
2018-09-12T04:28:16.162Z,18.50
2018-09-12T04:29:16.058Z,18.57
2018-09-12T04:30:15.974Z,18.54
2018-09-12T04:31:15.848Z,18.50
2018-09-12T04:32:15.741Z,18.51
2018-09-12T04:33:15.635Z,18.50
2018-09-12T04:34:15.528Z,18.51
2018-09-12T04:35:15.451Z,18.60
2018-09-12T04:36:15.317Z,18.52
2018-09-12T04:37:15.212Z,18.47
2018-09-12T04:38:15.102Z,18.50
2018-09-12T04:39:15.003Z,18.44
2018-09-12T04:40:14.926Z,18.35
2018-09-12T04:41:14.793Z,18.42
2018-09-12T04:42:14.689Z,18.39
2018-09-12T04:43:14.584Z,18.44
2018-09-12T04:44:14.476Z,18.45
2018-09-12T04:45:14.370Z,18.47
2018-09-12T04:46:14.290Z,18.48
2018-09-12T04:47:14.156Z,18.52
2018-09-12T04:48:14.050Z,18.48
2018-09-12T04:49:13.953Z,18.54
2018-09-12T04:50:13.851Z,18.51
2018-09-12T04:51:13.767Z,18.47
2018-09-12T04:52:13.637Z,18.57
2018-09-12T04:53:13.538Z,18.52
2018-09-12T04:54:13.433Z,18.52
2018-09-12T04:55:13.336Z,18.62
2018-09-12T04:56:13.260Z,18.62
2018-09-12T04:57:13.134Z,18.62
2018-09-12T04:58:13.030Z,18.62
2018-09-12T04:59:12.929Z,18.57
2018-09-12T05:00:12.829Z,18.62
2018-09-12T05:01:12.753Z,18.57
2018-09-12T05:02:12.624Z,18.58
2018-09-12T05:03:12.520Z,18.57
2018-09-12T05:04:12.422Z,18.62
2018-09-12T05:05:12.320Z,18.57
2018-09-12T05:06:12.240Z,18.51
2018-09-12T05:07:12.112Z,18.57
2018-09-12T05:08:12.012Z,18.58
2018-09-12T05:09:11.912Z,18.60
2018-09-12T05:10:11.920Z,18.58
2018-09-12T05:11:11.732Z,18.58
2018-09-12T05:12:11.609Z,18.62
2018-09-12T05:13:11.508Z,18.58
2018-09-12T05:14:11.403Z,18.65
2018-09-12T05:15:11.304Z,18.58
2018-09-12T05:16:11.231Z,18.65
2018-09-12T05:17:11.099Z,18.55
2018-09-12T05:18:11.001Z,18.65
2018-09-12T05:19:10.895Z,18.58
2018-09-12T05:20:10.788Z,18.66
2018-09-12T05:21:10.710Z,18.63
2018-09-12T05:22:10.579Z,18.66
2018-09-12T05:23:10.476Z,18.66
2018-09-12T05:24:10.375Z,18.66
2018-09-12T05:25:10.268Z,18.63
2018-09-12T05:26:10.188Z,18.65
2018-09-12T05:27:10.061Z,18.67
2018-09-12T05:28:09.992Z,18.63
2018-09-12T05:29:09.847Z,18.76
2018-09-12T05:30:09.744Z,18.66
2018-09-12T05:31:09.678Z,18.70
2018-09-12T05:32:09.532Z,18.70
2018-09-12T05:33:09.429Z,18.78
2018-09-12T05:34:09.322Z,18.75
2018-09-12T05:35:09.215Z,18.70
2018-09-12T05:36:09.183Z,18.72
2018-09-12T05:37:09.001Z,18.82
2018-09-12T05:38:08.885Z,18.85
2018-09-12T05:39:08.781Z,18.82
2018-09-12T05:40:08.670Z,18.85
2018-09-12T05:41:08.589Z,18.88
2018-09-12T05:42:08.451Z,18.91
2018-09-12T05:43:08.345Z,18.87
2018-09-12T05:44:08.238Z,18.90
2018-09-12T05:45:08.131Z,18.94
2018-09-12T05:46:08.062Z,18.90
2018-09-12T05:47:07.921Z,18.94
2018-09-12T05:48:07.812Z,18.91
2018-09-12T05:49:07.702Z,18.99
2018-09-12T05:50:07.644Z,19.04
2018-09-12T05:51:07.511Z,18.94
2018-09-12T05:52:07.371Z,19.08
2018-09-12T05:53:07.264Z,18.95
2018-09-12T05:54:07.159Z,18.95
2018-09-12T05:55:07.048Z,18.95
2018-09-12T05:56:06.967Z,18.98
2018-09-12T05:57:06.832Z,19.07
2018-09-12T05:58:06.721Z,19.08
2018-09-12T05:59:06.616Z,19.11
2018-09-12T06:00:06.511Z,19.08
2018-09-12T06:01:06.518Z,19.10
2018-09-12T06:02:06.298Z,19.04
2018-09-12T06:03:06.195Z,19.07
2018-09-12T06:04:06.082Z,19.07
2018-09-12T06:05:05.980Z,19.00
2018-09-12T06:06:05.896Z,19.06
2018-09-12T06:07:05.875Z,19.06
2018-09-12T06:08:05.645Z,19.06
2018-09-12T06:09:05.536Z,19.10
2018-09-12T06:10:05.425Z,19.06
2018-09-12T06:11:05.356Z,19.07
2018-09-12T06:12:05.203Z,19.19
2018-09-12T06:13:05.091Z,19.07
2018-09-12T06:14:05.028Z,19.19
2018-09-12T06:15:04.864Z,19.18
2018-09-12T06:16:04.751Z,19.18
2018-09-12T06:17:04.681Z,19.13
2018-09-12T06:18:04.536Z,19.26
2018-09-12T06:19:04.430Z,19.19
2018-09-12T06:20:04.321Z,19.25
2018-09-12T06:21:04.216Z,19.26
2018-09-12T06:22:04.114Z,19.25
2018-09-12T06:23:04.037Z,19.32
2018-09-12T06:24:03.899Z,19.26
2018-09-12T06:25:03.785Z,19.44
2018-09-12T06:26:03.675Z,19.39
2018-09-12T06:27:03.557Z,19.46
2018-09-12T06:28:03.471Z,19.51
2018-09-12T06:29:03.326Z,19.46
2018-09-12T06:30:03.213Z,19.59
2018-09-12T06:31:03.104Z,19.50
2018-09-12T06:32:02.990Z,19.55
2018-09-12T06:33:02.901Z,19.56
2018-09-12T06:34:02.762Z,19.68
2018-09-12T06:35:02.644Z,19.61
2018-09-12T06:36:02.525Z,19.69
2018-09-12T06:37:02.408Z,19.63
2018-09-12T06:38:02.311Z,19.73
2018-09-12T06:39:02.170Z,19.80
2018-09-12T06:40:02.055Z,19.78
2018-09-12T06:41:01.969Z,19.83
2018-09-12T06:42:01.820Z,19.87
2018-09-12T06:43:01.726Z,19.88
2018-09-12T06:44:01.582Z,19.91
2018-09-12T06:45:01.469Z,19.83
2018-09-12T06:46:01.342Z,19.99
2018-09-12T06:47:01.277Z,19.98
2018-09-12T06:48:01.218Z,19.98
2018-09-12T06:49:00.981Z,20.03
2018-09-12T06:50:00.885Z,20.06
2018-09-12T06:51:00.767Z,20.10
2018-09-12T06:52:00.613Z,20.16
2018-09-12T06:53:00.560Z,20.21
2018-09-12T06:54:00.363Z,20.21
2018-09-12T06:55:00.241Z,20.26
2018-09-12T06:56:00.146Z,20.33
2018-09-12T06:57:00.003Z,20.33
2018-09-12T06:57:59.888Z,20.41
2018-09-12T06:58:59.744Z,20.43
2018-09-12T06:59:59.615Z,20.50
2018-09-12T07:00:59.628Z,20.47
2018-09-12T07:01:59.393Z,20.52
2018-09-12T07:02:59.275Z,20.52
2018-09-12T07:03:59.144Z,20.57
2018-09-12T07:04:58.991Z,20.57
2018-09-12T07:05:58.854Z,20.50
2018-09-12T07:06:58.746Z,20.58
2018-09-12T07:07:58.599Z,20.72
2018-09-12T07:08:58.514Z,20.67
2018-09-12T07:09:58.367Z,20.70
2018-09-12T07:10:58.197Z,20.80
2018-09-12T07:11:58.110Z,20.67
2018-09-12T07:12:57.934Z,20.74
2018-09-12T07:13:57.886Z,20.80
2018-09-12T07:14:57.679Z,20.82
2018-09-12T07:15:57.557Z,20.76
2018-09-12T07:16:57.403Z,20.89
2018-09-12T07:17:57.270Z,20.76
2018-09-12T07:18:57.213Z,20.80
2018-09-12T07:19:57.005Z,20.84
2018-09-12T07:20:56.898Z,20.82
2018-09-12T07:21:56.744Z,20.80
2018-09-12T07:22:56.633Z,20.92
2018-09-12T07:23:56.512Z,20.88
2018-09-12T07:24:56.353Z,20.98
2018-09-12T07:25:56.245Z,21.04
2018-09-12T07:26:56.080Z,20.99
2018-09-12T07:27:55.973Z,21.03
2018-09-12T07:28:55.837Z,21.06
2018-09-12T07:29:55.672Z,21.07
2018-09-12T07:30:55.583Z,21.03
2018-09-12T07:31:55.423Z,21.16
2018-09-12T07:32:55.313Z,21.16
2018-09-12T07:33:55.164Z,21.17
2018-09-12T07:34:55.007Z,21.21
2018-09-12T07:35:54.908Z,21.19
2018-09-12T07:36:54.739Z,21.29
2018-09-12T07:37:54.611Z,21.25
2018-09-12T07:38:54.501Z,21.22
2018-09-12T07:39:54.358Z,21.32
2018-09-12T07:40:54.207Z,21.37
2018-09-12T07:41:54.063Z,21.32
2018-09-12T07:42:53.925Z,21.35
2018-09-12T07:43:53.889Z,21.46
2018-09-12T07:44:53.670Z,21.44
2018-09-12T07:45:53.521Z,21.49
2018-09-12T07:46:53.375Z,21.50
2018-09-12T07:47:53.236Z,21.59
2018-09-12T07:48:53.148Z,21.54
2018-09-12T07:49:52.984Z,21.58
2018-09-12T07:50:52.813Z,21.56
2018-09-12T07:51:52.657Z,21.56
2018-09-12T07:52:52.520Z,21.50
2018-09-12T07:53:52.393Z,21.56
2018-09-12T07:54:52.229Z,21.64
2018-09-12T07:55:52.118Z,21.53
2018-09-12T07:56:51.952Z,21.54
2018-09-12T07:57:51.802Z,21.68
2018-09-12T07:58:51.691Z,21.62
2018-09-12T07:59:51.524Z,21.64
2018-09-12T08:00:51.387Z,21.72
2018-09-12T08:01:51.249Z,21.71
2018-09-12T08:02:51.096Z,21.68
2018-09-12T08:03:50.989Z,21.79
2018-09-12T08:04:50.851Z,21.74
2018-09-12T08:05:50.669Z,21.74
2018-09-12T08:06:50.527Z,21.74
2018-09-12T08:07:50.381Z,21.86
2018-09-12T08:08:50.280Z,21.84
2018-09-12T08:09:50.082Z,21.84
2018-09-12T08:10:49.933Z,21.84
2018-09-12T08:11:49.784Z,21.91
2018-09-12T08:12:49.631Z,21.94
2018-09-12T08:13:49.481Z,21.98
2018-09-12T08:14:49.364Z,21.83
2018-09-12T08:15:49.180Z,21.83
2018-09-12T08:16:49.063Z,21.92
2018-09-12T08:17:48.884Z,21.84
2018-09-12T08:18:48.746Z,21.96
2018-09-12T08:19:48.616Z,21.90
2018-09-12T08:20:48.432Z,21.96
2018-09-12T08:21:48.277Z,21.94
2018-09-12T08:22:48.128Z,21.99
2018-09-12T08:23:47.968Z,21.98
2018-09-12T08:24:47.842Z,21.94
2018-09-12T08:25:47.670Z,22.00
2018-09-12T08:26:47.524Z,22.03
2018-09-12T08:27:47.361Z,22.12
2018-09-12T08:28:47.204Z,22.12
2018-09-12T08:29:47.081Z,22.12
2018-09-12T08:30:46.905Z,22.18
2018-09-12T08:31:46.762Z,22.18
2018-09-12T08:32:46.606Z,22.15
2018-09-12T08:33:46.464Z,22.15
2018-09-12T08:34:46.326Z,22.15
2018-09-12T08:35:46.146Z,22.27
2018-09-12T08:36:45.986Z,22.22
2018-09-12T08:37:45.833Z,22.28
2018-09-12T08:38:45.687Z,22.21
2018-09-12T08:39:45.550Z,22.18
2018-09-12T08:40:45.365Z,22.28
2018-09-12T08:41:45.217Z,22.22
2018-09-12T08:42:45.056Z,22.33
2018-09-12T08:43:44.905Z,22.28
2018-09-12T08:44:44.770Z,22.42
2018-09-12T08:45:44.588Z,22.37
2018-09-12T08:46:44.426Z,22.37
2018-09-12T08:47:44.284Z,22.40
2018-09-12T08:48:44.114Z,22.49
2018-09-12T08:49:43.976Z,22.57
2018-09-12T08:50:43.793Z,22.43
2018-09-12T08:51:43.631Z,22.49
2018-09-12T08:52:43.473Z,22.46
2018-09-12T08:53:43.327Z,22.60
2018-09-12T08:54:43.179Z,22.57
2018-09-12T08:55:42.995Z,22.60
2018-09-12T08:56:42.843Z,22.55
2018-09-12T08:57:42.695Z,22.61
2018-09-12T08:58:42.540Z,22.60
2018-09-12T08:59:42.379Z,22.67
2018-09-12T09:00:42.191Z,22.68
2018-09-12T09:01:42.170Z,22.79
2018-09-12T09:02:41.866Z,22.77
2018-09-12T09:03:41.705Z,22.76
2018-09-12T09:04:41.568Z,22.80
2018-09-12T09:05:41.383Z,22.83
2018-09-12T09:06:41.219Z,22.82
2018-09-12T09:07:41.064Z,22.82
2018-09-12T09:08:40.900Z,22.86
2018-09-12T09:09:40.771Z,22.92
2018-09-12T09:10:40.656Z,22.92
2018-09-12T09:11:40.429Z,23.01
2018-09-12T09:12:40.270Z,22.95
2018-09-12T09:13:40.117Z,23.01
2018-09-12T09:14:39.999Z,23.09
2018-09-12T09:15:39.790Z,23.00
2018-09-12T09:16:39.625Z,23.04
2018-09-12T09:17:39.465Z,23.09
2018-09-12T09:18:39.308Z,23.09
2018-09-12T09:19:39.142Z,23.16
2018-09-12T09:20:39.012Z,23.09
2018-09-12T09:21:38.814Z,23.25
2018-09-12T09:22:38.651Z,23.19
2018-09-12T09:23:38.529Z,23.17
2018-09-12T09:24:38.320Z,23.20
2018-09-12T09:25:38.173Z,23.36
2018-09-12T09:26:37.983Z,23.33
2018-09-12T09:27:37.814Z,23.39
2018-09-12T09:28:37.646Z,23.39
2018-09-12T09:29:37.479Z,23.40
2018-09-12T09:30:37.337Z,23.46
2018-09-12T09:31:37.150Z,23.50
2018-09-12T09:32:37.016Z,23.66
2018-09-12T09:33:36.814Z,23.57
2018-09-12T09:34:36.637Z,23.63
2018-09-12T09:35:36.675Z,23.78
2018-09-12T09:36:36.338Z,23.78
2018-09-12T09:37:36.119Z,23.75
2018-09-12T09:38:35.942Z,23.80
2018-09-12T09:39:35.769Z,23.85
2018-09-12T09:40:35.612Z,23.91
2018-09-12T09:41:35.407Z,23.90
2018-09-12T09:42:35.249Z,23.95
2018-09-12T09:43:35.050Z,23.95
2018-09-12T09:44:34.876Z,23.98
2018-09-12T09:45:34.802Z,24.05
2018-09-12T09:46:34.515Z,24.13
2018-09-12T09:47:34.361Z,24.09
2018-09-12T09:48:34.159Z,24.21
2018-09-12T09:49:34.006Z,24.08
2018-09-12T09:50:33.823Z,24.24
2018-09-12T09:51:33.633Z,24.20
2018-09-12T09:52:33.441Z,24.28
2018-09-12T09:53:33.258Z,24.22
2018-09-12T09:54:33.181Z,24.28
2018-09-12T09:55:32.924Z,24.32
2018-09-12T09:56:32.715Z,24.34
2018-09-12T09:57:32.534Z,24.46
2018-09-12T09:58:32.352Z,24.43
2018-09-12T09:59:32.171Z,24.46
2018-09-12T10:00:32.021Z,24.49
2018-09-12T10:01:31.807Z,24.53
2018-09-12T10:02:31.626Z,24.61
2018-09-12T10:03:31.473Z,24.65
2018-09-12T10:04:31.286Z,24.67
2018-09-12T10:05:31.164Z,24.69
2018-09-12T10:06:30.895Z,24.76
2018-09-12T10:07:30.708Z,24.88
2018-09-12T10:08:30.522Z,24.77
2018-09-12T10:09:30.330Z,24.88
2018-09-12T10:10:30.175Z,24.90
2018-09-12T10:11:29.950Z,24.93
2018-09-12T10:12:29.762Z,24.99
2018-09-12T10:13:29.572Z,24.98
2018-09-12T10:14:29.408Z,24.93
2018-09-12T10:15:29.194Z,24.96
2018-09-12T10:16:29.041Z,24.99
2018-09-12T10:17:28.815Z,25.02
2018-09-12T10:18:28.649Z,24.99
2018-09-12T10:19:28.432Z,25.08
2018-09-12T10:20:28.243Z,25.00
2018-09-12T10:21:28.073Z,25.06
2018-09-12T10:22:27.889Z,25.25
2018-09-12T10:23:27.649Z,25.15
2018-09-12T10:24:27.528Z,25.17
2018-09-12T10:25:27.255Z,25.30
2018-09-12T10:26:27.081Z,25.28
2018-09-12T10:27:26.860Z,25.35
2018-09-12T10:28:26.663Z,25.35
2018-09-12T10:29:26.470Z,25.40
2018-09-12T10:30:26.272Z,25.51
2018-09-12T10:31:26.101Z,25.50
2018-09-12T10:32:25.869Z,25.54
2018-09-12T10:33:25.664Z,25.58
2018-09-12T10:34:25.489Z,25.58
2018-09-12T10:35:25.260Z,25.70
2018-09-12T10:36:25.090Z,25.72
2018-09-12T10:37:24.861Z,25.79
2018-09-12T10:38:24.656Z,25.75
2018-09-12T10:39:24.452Z,25.82
2018-09-12T10:40:24.252Z,25.88
2018-09-12T10:41:24.082Z,25.88
2018-09-12T10:42:24.532Z,25.99
2018-09-12T10:43:23.645Z,25.98
2018-09-12T10:44:23.461Z,26.10
2018-09-12T10:45:23.251Z,26.09
2018-09-12T10:46:23.053Z,26.09
2018-09-12T10:47:22.811Z,26.15
2018-09-12T10:48:22.641Z,26.20
2018-09-12T10:49:23.385Z,26.20
2018-09-12T10:50:22.179Z,26.20
2018-09-12T10:51:22.013Z,26.28
2018-09-12T10:52:21.775Z,26.35
2018-09-12T10:53:21.585Z,26.30
2018-09-12T10:54:21.344Z,26.43
2018-09-12T10:55:21.119Z,26.43
2018-09-12T10:56:21.002Z,26.51
2018-09-12T10:57:20.730Z,26.44
2018-09-12T10:58:20.485Z,26.52
2018-09-12T10:59:20.301Z,26.54
2018-09-12T11:00:20.073Z,26.67
2018-09-12T11:01:19.857Z,26.67
2018-09-12T11:02:19.666Z,26.69
2018-09-12T11:03:19.420Z,26.76
2018-09-12T11:04:19.213Z,26.77
2018-09-12T11:05:18.986Z,26.91
2018-09-12T11:06:18.765Z,26.94
2018-09-12T11:07:18.582Z,26.99
2018-09-12T11:08:18.318Z,27.06
2018-09-12T11:09:18.095Z,27.12
2018-09-12T11:10:17.880Z,27.17
2018-09-12T11:11:17.655Z,27.19
2018-09-12T11:12:17.466Z,27.14
2018-09-12T11:13:17.216Z,27.22
2018-09-12T11:14:16.992Z,27.21
2018-09-12T11:15:16.844Z,27.31
2018-09-12T11:16:16.549Z,27.37
2018-09-12T11:17:16.353Z,27.40
2018-09-12T11:18:16.108Z,27.47
2018-09-12T11:19:15.890Z,27.54
2018-09-12T11:20:15.662Z,27.54
2018-09-12T11:21:16.036Z,27.66
2018-09-12T11:22:15.242Z,27.65
2018-09-12T11:23:14.994Z,27.69
2018-09-12T11:24:14.766Z,27.62
2018-09-12T11:25:14.540Z,27.70
2018-09-12T11:26:14.312Z,27.77
2018-09-12T11:27:14.118Z,27.70
2018-09-12T11:28:13.867Z,27.67
2018-09-12T11:29:13.635Z,27.77
2018-09-12T11:30:13.410Z,27.77
2018-09-12T11:31:13.165Z,27.77
2018-09-12T11:32:12.957Z,27.90
2018-09-12T11:33:12.694Z,27.88
2018-09-12T11:34:12.490Z,27.96
2018-09-12T11:35:12.224Z,27.99
2018-09-12T11:36:11.982Z,28.02
2018-09-12T11:37:11.768Z,28.06
2018-09-12T11:38:11.505Z,28.04
2018-09-12T11:39:11.273Z,28.11
2018-09-12T11:40:11.094Z,28.15
2018-09-12T11:41:10.787Z,28.29
2018-09-12T11:42:10.581Z,28.34
2018-09-12T11:43:10.298Z,28.31
2018-09-12T11:44:10.055Z,28.27
2018-09-12T11:45:09.814Z,28.31
2018-09-12T11:46:09.572Z,28.46
2018-09-12T11:47:09.371Z,28.48
2018-09-12T11:48:09.079Z,28.61
2018-09-12T11:49:08.880Z,28.66
2018-09-12T11:50:08.591Z,28.66
2018-09-12T11:51:08.345Z,28.71
2018-09-12T11:52:08.092Z,28.73
2018-09-12T11:53:07.872Z,28.77
2018-09-12T11:54:07.599Z,28.81
2018-09-12T11:55:07.347Z,28.86
2018-09-12T11:56:07.096Z,28.78
2018-09-12T11:57:06.844Z,28.89
2018-09-12T11:58:06.617Z,28.95
2018-09-12T11:59:06.340Z,28.92
2018-09-12T12:00:06.092Z,28.96
2018-09-12T12:01:05.832Z,28.93
2018-09-12T12:02:05.598Z,28.93
2018-09-12T12:03:05.350Z,29.05
2018-09-12T12:04:05.066Z,29.06
2018-09-12T12:05:04.816Z,29.05
2018-09-12T12:06:04.621Z,29.06
2018-09-12T12:07:04.305Z,29.06
2018-09-12T12:08:04.083Z,29.15
2018-09-12T12:09:03.802Z,29.12
2018-09-12T12:10:03.537Z,29.14
2018-09-12T12:11:03.295Z,29.11
2018-09-12T12:12:03.029Z,29.15
2018-09-12T12:13:02.801Z,29.14
2018-09-12T12:14:02.522Z,29.14
2018-09-12T12:15:02.261Z,29.12
2018-09-12T12:16:02.009Z,29.18
2018-09-12T12:17:01.762Z,29.26
2018-09-12T12:18:01.520Z,29.31
2018-09-12T12:19:01.235Z,29.28
2018-09-12T12:20:00.975Z,29.37
2018-09-12T12:21:00.715Z,29.39
2018-09-12T12:22:00.462Z,29.39
2018-09-12T12:23:00.273Z,29.37
2018-09-12T12:23:59.935Z,29.37
2018-09-12T12:24:59.682Z,29.37
2018-09-12T12:25:59.426Z,29.33
2018-09-12T12:26:59.167Z,29.39
2018-09-12T12:27:59.098Z,29.48
2018-09-12T12:28:58.645Z,29.53
2018-09-12T12:29:58.379Z,29.53
2018-09-12T12:30:58.114Z,29.63
2018-09-12T12:31:57.848Z,29.70
2018-09-12T12:32:57.606Z,29.71
2018-09-12T12:33:57.316Z,29.82
2018-09-12T12:34:57.049Z,29.85
2018-09-12T12:35:56.788Z,29.95
2018-09-12T12:36:56.508Z,30.01
2018-09-12T12:37:56.258Z,30.00
2018-09-12T12:38:55.968Z,30.15
2018-09-12T12:39:55.690Z,30.15
2018-09-12T12:40:55.409Z,30.24
2018-09-12T12:41:55.137Z,30.39
2018-09-12T12:42:54.903Z,30.46
2018-09-12T12:43:54.585Z,30.54
2018-09-12T12:44:54.298Z,30.57
2018-09-12T12:45:54.020Z,30.58
2018-09-12T12:46:53.744Z,30.75
2018-09-12T12:47:53.446Z,30.72
2018-09-12T12:48:53.188Z,30.65
2018-09-12T12:49:52.891Z,30.75
2018-09-12T12:50:52.590Z,30.86